INFORMACIÓN METAR y TAF
METAR FOR LECH
ADDS - METARS form results

(2257 UTC 15 July 2018)
Data provider http://aviationweather.gov/adds/metars/
 
METAR text: LECH 152230Z AUTO 09004KT 020V120 9000 NSC 23/22 Q1013
Conditions at: LECH (CASTELLON , ES) observed 2230 UTC 15 July 2018
Temperature: 23.0°C (73°F)
Dewpoint: 22.0°C (72°F) [RH = 94%]
Pressure (altimeter): 29.91 inches Hg (1013.0 mb)
Winds: from the E (90 degrees) at 5 MPH (4 knots; 2.1 m/s)
Visibility: 6 miles (9 km)
Ceiling: at least 12,000 feet AGL
Clouds: sky clear below 12,000 feet AGL
Weather: no significant weather observed at this time

METAR text: LECH 152200Z AUTO 07005KT 9999 NCD 23/21 Q1013
Conditions at: LECH (CASTELLON , ES) observed 2200 UTC 15 July 2018
Temperature: 23.0°C (73°F)
Dewpoint: 21.0°C (70°F) [RH = 89%]
Pressure (altimeter): 29.91 inches Hg (1013.0 mb)
Winds: from the ENE (70 degrees) at 6 MPH (5 knots; 2.6 m/s)
Visibility: 6 or more miles (10+ km)
Ceiling: at least 12,000 feet AGL
Clouds: sky clear below 12,000 feet AGL
Weather: no significant weather observed at this time

 MAPA DE AEROPUERTO

 INFORMACIÓN DE PISTA

 FRECUANCIAS DEL AEROPUERTO

 RADIO AYUDAS DEL AEROPUERTO